sensor_id;sensor_type;location;lat;lon;timestamp;P1;durP1;ratioP1;P2;durP2;ratioP2
20772;SDS011;10546;50.674;4.616;2024-01-30T06:37:36;12.73;;;7.30;;
20772;SDS011;10546;50.674;4.616;2024-01-30T06:40:02;14.20;;;6.83;;
20772;SDS011;10546;50.674;4.616;2024-01-30T06:42:30;11.83;;;6.30;;
20772;SDS011;10546;50.674;4.616;2024-01-30T06:44:56;17.67;;;6.93;;
20772;SDS011;10546;50.674;4.616;2024-01-30T06:47:21;11.33;;;5.30;;
20772;SDS011;10546;50.674;4.616;2024-01-30T06:49:47;10.53;;;6.87;;
20772;SDS011;10546;50.674;4.616;2024-01-30T06:52:13;12.03;;;7.00;;
20772;SDS011;10546;50.674;4.616;2024-01-30T06:54:39;14.60;;;7.47;;
20772;SDS011;10546;50.674;4.616;2024-01-30T06:57:05;11.63;;;6.80;;
20772;SDS011;10546;50.674;4.616;2024-01-30T06:59:34;11.27;;;6.77;;
20772;SDS011;10546;50.674;4.616;2024-01-30T07:02:00;12.20;;;6.67;;
20772;SDS011;10546;50.674;4.616;2024-01-30T07:04:25;15.23;;;6.97;;
20772;SDS011;10546;50.674;4.616;2024-01-30T07:06:51;11.50;;;6.80;;
20772;SDS011;10546;50.674;4.616;2024-01-30T07:09:18;15.80;;;6.33;;
20772;SDS011;10546;50.674;4.616;2024-01-30T07:11:44;12.80;;;6.90;;
20772;SDS011;10546;50.674;4.616;2024-01-30T07:14:09;14.33;;;6.53;;
20772;SDS011;10546;50.674;4.616;2024-01-30T07:16:35;12.33;;;5.83;;
20772;SDS011;10546;50.674;4.616;2024-01-30T07:19:01;15.13;;;6.63;;
20772;SDS011;10546;50.674;4.616;2024-01-30T07:21:27;12.70;;;6.93;;
20772;SDS011;10546;50.674;4.616;2024-01-30T07:23:56;14.53;;;7.47;;
20772;SDS011;10546;50.674;4.616;2024-01-30T07:26:22;14.77;;;7.20;;
20772;SDS011;10546;50.674;4.616;2024-01-30T07:28:48;13.80;;;7.07;;
20772;SDS011;10546;50.674;4.616;2024-01-30T07:31:15;14.43;;;6.93;;
20772;SDS011;10546;50.674;4.616;2024-01-30T07:33:40;20.60;;;8.00;;
20772;SDS011;10546;50.674;4.616;2024-01-30T07:36:06;18.90;;;7.70;;
20772;SDS011;10546;50.674;4.616;2024-01-30T07:38:32;15.20;;;7.30;;
20772;SDS011;10546;50.674;4.616;2024-01-30T07:40:58;16.27;;;7.30;;
20772;SDS011;10546;50.674;4.616;2024-01-30T07:43:23;17.83;;;7.30;;
20772;SDS011;10546;50.674;4.616;2024-01-30T07:45:49;12.57;;;7.53;;
20772;SDS011;10546;50.674;4.616;2024-01-30T07:48:15;13.77;;;7.43;;
20772;SDS011;10546;50.674;4.616;2024-01-30T07:50:41;12.77;;;6.97;;
20772;SDS011;10546;50.674;4.616;2024-01-30T07:53:06;13.10;;;7.40;;
20772;SDS011;10546;50.674;4.616;2024-01-30T07:55:32;12.13;;;6.87;;
20772;SDS011;10546;50.674;4.616;2024-01-30T07:57:58;14.23;;;6.87;;
20772;SDS011;10546;50.674;4.616;2024-01-30T08:00:24;13.77;;;7.50;;
20772;SDS011;10546;50.674;4.616;2024-01-30T08:02:49;12.07;;;6.87;;
20772;SDS011;10546;50.674;4.616;2024-01-30T08:05:15;11.97;;;6.43;;
20772;SDS011;10546;50.674;4.616;2024-01-30T08:07:41;14.07;;;7.37;;
20772;SDS011;10546;50.674;4.616;2024-01-30T08:10:11;14.70;;;7.50;;
20772;SDS011;10546;50.674;4.616;2024-01-30T08:12:38;11.33;;;6.73;;
20772;SDS011;10546;50.674;4.616;2024-01-30T08:15:04;12.23;;;6.83;;
20772;SDS011;10546;50.674;4.616;2024-01-30T08:17:30;14.17;;;6.73;;
20772;SDS011;10546;50.674;4.616;2024-01-30T08:19:55;10.93;;;6.57;;
20772;SDS011;10546;50.674;4.616;2024-01-30T08:22:21;11.03;;;6.57;;
20772;SDS011;10546;50.674;4.616;2024-01-30T08:24:47;17.23;;;6.57;;
20772;SDS011;10546;50.674;4.616;2024-01-30T08:27:12;13.53;;;6.73;;
20772;SDS011;10546;50.674;4.616;2024-01-30T08:29:38;13.50;;;6.17;;
20772;SDS011;10546;50.674;4.616;2024-01-30T08:32:04;11.73;;;6.30;;
20772;SDS011;10546;50.674;4.616;2024-01-30T08:34:30;9.18;;;6.07;;
20772;SDS011;10546;50.674;4.616;2024-01-30T08:36:56;16.73;;;8.10;;
20772;SDS011;10546;50.674;4.616;2024-01-30T08:39:22;23.77;;;9.20;;
20772;SDS011;10546;50.674;4.616;2024-01-30T08:41:48;17.63;;;8.87;;
20772;SDS011;10546;50.674;4.616;2024-01-30T08:44:13;13.52;;;7.45;;
20772;SDS011;10546;50.674;4.616;2024-01-30T08:46:39;10.30;;;6.47;;
20772;SDS011;10546;50.674;4.616;2024-01-30T08:49:04;17.40;;;8.50;;
20772;SDS011;10546;50.674;4.616;2024-01-30T08:51:30;14.63;;;7.10;;
20772;SDS011;10546;50.674;4.616;2024-01-30T08:53:56;11.30;;;6.13;;
20772;SDS011;10546;50.674;4.616;2024-01-30T08:56:22;14.23;;;6.27;;
20772;SDS011;10546;50.674;4.616;2024-01-30T08:58:47;15.97;;;6.93;;
20772;SDS011;10546;50.674;4.616;2024-01-30T09:01:13;11.18;;;6.55;;
20772;SDS011;10546;50.674;4.616;2024-01-30T09:03:39;11.63;;;6.73;;
20772;SDS011;10546;50.674;4.616;2024-01-30T09:06:12;13.93;;;7.35;;
20772;SDS011;10546;50.674;4.616;2024-01-30T09:08:38;17.87;;;9.60;;
20772;SDS011;10546;50.674;4.616;2024-01-30T09:11:13;14.30;;;6.75;;
20772;SDS011;10546;50.674;4.616;2024-01-30T09:13:39;11.97;;;6.80;;
20772;SDS011;10546;50.674;4.616;2024-01-30T09:16:05;12.40;;;6.35;;
20772;SDS011;10546;50.674;4.616;2024-01-30T09:18:31;13.25;;;6.80;;
20772;SDS011;10546;50.674;4.616;2024-01-30T09:20:57;12.67;;;6.63;;
20772;SDS011;10546;50.674;4.616;2024-01-30T09:23:23;16.03;;;6.60;;
20772;SDS011;10546;50.674;4.616;2024-01-30T09:25:49;12.90;;;6.30;;
20772;SDS011;10546;50.674;4.616;2024-01-30T09:28:16;18.70;;;7.67;;
20772;SDS011;10546;50.674;4.616;2024-01-30T09:30:43;11.88;;;6.32;;
20772;SDS011;10546;50.674;4.616;2024-01-30T09:33:08;17.07;;;7.83;;
20772;SDS011;10546;50.674;4.616;2024-01-30T09:35:34;18.40;;;6.57;;
20772;SDS011;10546;50.674;4.616;2024-01-30T09:38:01;14.30;;;6.93;;
20772;SDS011;10546;50.674;4.616;2024-01-30T09:40:28;12.97;;;6.63;;
20772;SDS011;10546;50.674;4.616;2024-01-30T09:42:54;13.20;;;6.07;;
20772;SDS011;10546;50.674;4.616;2024-01-30T09:45:24;13.27;;;6.25;;
20772;SDS011;10546;50.674;4.616;2024-01-30T09:47:51;18.25;;;7.22;;
20772;SDS011;10546;50.674;4.616;2024-01-30T09:50:18;14.77;;;7.73;;
20772;SDS011;10546;50.674;4.616;2024-01-30T09:52:44;11.02;;;6.63;;
20772;SDS011;10546;50.674;4.616;2024-01-30T09:55:11;13.85;;;7.45;;
20772;SDS011;10546;50.674;4.616;2024-01-30T09:57:37;14.63;;;7.32;;
20772;SDS011;10546;50.674;4.616;2024-01-30T10:00:06;14.07;;;8.00;;
20772;SDS011;10546;50.674;4.616;2024-01-30T10:02:33;19.30;;;9.20;;
20772;SDS011;10546;50.674;4.616;2024-01-30T10:05:03;16.10;;;6.85;;
20772;SDS011;10546;50.674;4.616;2024-01-30T10:07:29;12.88;;;7.43;;
20772;SDS011;10546;50.674;4.616;2024-01-30T10:09:55;13.25;;;6.95;;
20772;SDS011;10546;50.674;4.616;2024-01-30T10:12:26;14.95;;;7.40;;
20772;SDS011;10546;50.674;4.616;2024-01-30T10:14:53;16.15;;;7.50;;
20772;SDS011;10546;50.674;4.616;2024-01-30T10:17:21;15.75;;;7.60;;
20772;SDS011;10546;50.674;4.616;2024-01-30T10:19:49;20.75;;;7.20;;
20772;SDS011;10546;50.674;4.616;2024-01-30T10:22:16;16.08;;;8.45;;
20772;SDS011;10546;50.674;4.616;2024-01-30T10:24:42;17.15;;;7.63;;
20772;SDS011;10546;50.674;4.616;2024-01-30T10:27:10;16.95;;;7.32;;
20772;SDS011;10546;50.674;4.616;2024-01-30T10:29:36;23.20;;;7.88;;
20772;SDS011;10546;50.674;4.616;2024-01-30T10:32:02;17.42;;;8.50;;
20772;SDS011;10546;50.674;4.616;2024-01-30T10:34:32;17.33;;;8.48;;
20772;SDS011;10546;50.674;4.616;2024-01-30T10:37:08;16.83;;;7.70;;
20772;SDS011;10546;50.674;4.616;2024-01-30T10:39:41;15.70;;;7.63;;
20772;SDS011;10546;50.674;4.616;2024-01-30T10:42:11;18.40;;;7.55;;
20772;SDS011;10546;50.674;4.616;2024-01-30T10:44:51;25.17;;;8.33;;
20772;SDS011;10546;50.674;4.616;2024-01-30T10:47:37;14.83;;;6.73;;
20772;SDS011;10546;50.674;4.616;2024-01-30T10:50:04;13.70;;;7.80;;
20772;SDS011;10546;50.674;4.616;2024-01-30T10:52:31;16.30;;;8.35;;
20772;SDS011;10546;50.674;4.616;2024-01-30T10:54:57;16.53;;;8.43;;
20772;SDS011;10546;50.674;4.616;2024-01-30T10:57:23;18.63;;;9.87;;
20772;SDS011;10546;50.674;4.616;2024-01-30T10:59:59;18.38;;;10.13;;
20772;SDS011;10546;50.674;4.616;2024-01-30T11:02:30;16.75;;;9.20;;
20772;SDS011;10546;50.674;4.616;2024-01-30T11:04:57;21.20;;;10.38;;
20772;SDS011;10546;50.674;4.616;2024-01-30T11:07:24;20.50;;;9.53;;
20772;SDS011;10546;50.674;4.616;2024-01-30T11:09:52;21.97;;;9.30;;
20772;SDS011;10546;50.674;4.616;2024-01-30T11:12:28;25.50;;;11.03;;
20772;SDS011;10546;50.674;4.616;2024-01-30T11:17:38;22.20;;;9.95;;
20772;SDS011;10546;50.674;4.616;2024-01-30T11:20:19;19.02;;;10.85;;
20772;SDS011;10546;50.674;4.616;2024-01-30T11:22:52;22.42;;;11.10;;
20772;SDS011;10546;50.674;4.616;2024-01-30T11:25:21;18.47;;;10.27;;
20772;SDS011;10546;50.674;4.616;2024-01-30T11:27:49;24.60;;;11.03;;
20772;SDS011;10546;50.674;4.616;2024-01-30T11:30:29;19.83;;;10.43;;
20772;SDS011;10546;50.674;4.616;2024-01-30T11:33:02;28.63;;;13.50;;
20772;SDS011;10546;50.674;4.616;2024-01-30T11:35:33;21.85;;;10.93;;
20772;SDS011;10546;50.674;4.616;2024-01-30T11:38:00;22.40;;;10.45;;
20772;SDS011;10546;50.674;4.616;2024-01-30T11:40:30;20.77;;;11.15;;
20772;SDS011;10546;50.674;4.616;2024-01-30T11:42:58;20.58;;;10.05;;
20772;SDS011;10546;50.674;4.616;2024-01-30T11:45:28;21.50;;;10.05;;
20772;SDS011;10546;50.674;4.616;2024-01-30T11:47:54;22.60;;;9.07;;
20772;SDS011;10546;50.674;4.616;2024-01-30T11:50:20;19.48;;;9.25;;
20772;SDS011;10546;50.674;4.616;2024-01-30T11:52:46;20.48;;;7.85;;
20772;SDS011;10546;50.674;4.616;2024-01-30T11:55:13;10.10;;;5.05;;
20772;SDS011;10546;50.674;4.616;2024-01-30T11:57:42;11.30;;;3.25;;
20772;SDS011;10546;50.674;4.616;2024-01-30T12:00:19;9.07;;;3.47;;
20772;SDS011;10546;50.674;4.616;2024-01-30T12:02:49;8.20;;;2.30;;
20772;SDS011;10546;50.674;4.616;2024-01-30T12:05:16;6.95;;;2.30;;
20772;SDS011;10546;50.674;4.616;2024-01-30T12:07:44;5.38;;;2.10;;
20772;SDS011;10546;50.674;4.616;2024-01-30T12:10:11;6.18;;;2.25;;
20772;SDS011;10546;50.674;4.616;2024-01-30T12:12:39;7.40;;;2.45;;
20772;SDS011;10546;50.674;4.616;2024-01-30T12:15:06;5.85;;;2.25;;
20772;SDS011;10546;50.674;4.616;2024-01-30T12:17:33;3.20;;;1.85;;
20772;SDS011;10546;50.674;4.616;2024-01-30T12:20:05;4.47;;;2.30;;
20772;SDS011;10546;50.674;4.616;2024-01-30T12:22:43;7.53;;;2.30;;
20772;SDS011;10546;50.674;4.616;2024-01-30T12:25:14;5.70;;;2.05;;
20772;SDS011;10546;50.674;4.616;2024-01-30T12:27:47;10.27;;;1.90;;
20772;SDS011;10546;50.674;4.616;2024-01-30T12:30:17;4.72;;;1.88;;
20772;SDS011;10546;50.674;4.616;2024-01-30T12:32:44;4.45;;;1.65;;
20772;SDS011;10546;50.674;4.616;2024-01-30T12:35:14;6.10;;;1.92;;
20772;SDS011;10546;50.674;4.616;2024-01-30T12:37:41;6.95;;;2.30;;
20772;SDS011;10546;50.674;4.616;2024-01-30T12:40:08;8.07;;;2.20;;
20772;SDS011;10546;50.674;4.616;2024-01-30T12:42:36;9.23;;;2.55;;
20772;SDS011;10546;50.674;4.616;2024-01-30T12:45:02;5.18;;;2.10;;
20772;SDS011;10546;50.674;4.616;2024-01-30T12:47:29;7.05;;;1.77;;
20772;SDS011;10546;50.674;4.616;2024-01-30T12:49:55;6.30;;;2.38;;
20772;SDS011;10546;50.674;4.616;2024-01-30T12:52:21;6.65;;;2.50;;
20772;SDS011;10546;50.674;4.616;2024-01-30T12:54:50;2.85;;;1.67;;
20772;SDS011;10546;50.674;4.616;2024-01-30T12:57:16;5.30;;;1.98;;
20772;SDS011;10546;50.674;4.616;2024-01-30T12:59:43;4.47;;;1.40;;
20772;SDS011;10546;50.674;4.616;2024-01-30T13:02:10;4.10;;;1.20;;
20772;SDS011;10546;50.674;4.616;2024-01-30T13:04:37;7.63;;;1.30;;
20772;SDS011;10546;50.674;4.616;2024-01-30T13:07:02;4.40;;;1.27;;
20772;SDS011;10546;50.674;4.616;2024-01-30T13:09:29;2.60;;;1.17;;
20772;SDS011;10546;50.674;4.616;2024-01-30T13:11:56;2.90;;;1.03;;
20772;SDS011;10546;50.674;4.616;2024-01-30T13:14:23;5.72;;;1.58;;
20772;SDS011;10546;50.674;4.616;2024-01-30T13:16:49;3.65;;;1.30;;
20772;SDS011;10546;50.674;4.616;2024-01-30T13:19:15;2.35;;;1.38;;
20772;SDS011;10546;50.674;4.616;2024-01-30T13:21:41;1.80;;;0.90;;
20772;SDS011;10546;50.674;4.616;2024-01-30T13:24:07;7.00;;;1.70;;
20772;SDS011;10546;50.674;4.616;2024-01-30T13:26:33;1.87;;;1.10;;
20772;SDS011;10546;50.674;4.616;2024-01-30T13:28:59;4.97;;;1.13;;
20772;SDS011;10546;50.674;4.616;2024-01-30T13:31:24;2.58;;;1.05;;
20772;SDS011;10546;50.674;4.616;2024-01-30T13:33:52;6.95;;;2.45;;
20772;SDS011;10546;50.674;4.616;2024-01-30T13:36:18;4.28;;;1.85;;
20772;SDS011;10546;50.674;4.616;2024-01-30T13:38:44;4.70;;;2.13;;
20772;SDS011;10546;50.674;4.616;2024-01-30T13:41:09;2.65;;;1.30;;
20772;SDS011;10546;50.674;4.616;2024-01-30T13:43:35;2.87;;;1.67;;
20772;SDS011;10546;50.674;4.616;2024-01-30T13:46:01;3.28;;;1.75;;
20772;SDS011;10546;50.674;4.616;2024-01-30T13:48:26;2.57;;;1.60;;
20772;SDS011;10546;50.674;4.616;2024-01-30T13:50:52;2.77;;;1.57;;
20772;SDS011;10546;50.674;4.616;2024-01-30T13:53:18;2.63;;;1.60;;
20772;SDS011;10546;50.674;4.616;2024-01-30T13:55:44;2.53;;;1.47;;
20772;SDS011;10546;50.674;4.616;2024-01-30T13:58:10;2.17;;;1.53;;
20772;SDS011;10546;50.674;4.616;2024-01-30T14:00:35;4.40;;;1.73;;
20772;SDS011;10546;50.674;4.616;2024-01-30T14:03:01;5.40;;;2.67;;
20772;SDS011;10546;50.674;4.616;2024-01-30T14:05:28;4.83;;;1.40;;
20772;SDS011;10546;50.674;4.616;2024-01-30T14:07:53;3.67;;;1.70;;
20772;SDS011;10546;50.674;4.616;2024-01-30T14:10:20;5.47;;;1.42;;
20772;SDS011;10546;50.674;4.616;2024-01-30T14:12:46;5.83;;;1.67;;
20772;SDS011;10546;50.674;4.616;2024-01-30T14:15:13;2.77;;;1.17;;
20772;SDS011;10546;50.674;4.616;2024-01-30T14:17:39;6.60;;;3.30;;
20772;SDS011;10546;50.674;4.616;2024-01-30T14:20:05;6.35;;;1.90;;
20772;SDS011;10546;50.674;4.616;2024-01-30T14:22:33;6.13;;;2.63;;
20772;SDS011;10546;50.674;4.616;2024-01-30T14:24:59;10.18;;;3.55;;
20772;SDS011;10546;50.674;4.616;2024-01-30T14:27:31;6.38;;;2.28;;
20772;SDS011;10546;50.674;4.616;2024-01-30T14:29:57;7.47;;;3.50;;
20772;SDS011;10546;50.674;4.616;2024-01-30T14:32:23;5.95;;;2.30;;
20772;SDS011;10546;50.674;4.616;2024-01-30T14:34:50;6.37;;;1.60;;
20772;SDS011;10546;50.674;4.616;2024-01-30T14:37:17;4.77;;;1.70;;
20772;SDS011;10546;50.674;4.616;2024-01-30T14:39:43;3.50;;;1.30;;
20772;SDS011;10546;50.674;4.616;2024-01-30T14:42:09;6.77;;;2.83;;
20772;SDS011;10546;50.674;4.616;2024-01-30T14:44:35;4.83;;;1.60;;
20772;SDS011;10546;50.674;4.616;2024-01-30T14:47:00;7.27;;;1.77;;
20772;SDS011;10546;50.674;4.616;2024-01-30T14:49:26;7.27;;;1.60;;
20772;SDS011;10546;50.674;4.616;2024-01-30T14:51:52;6.37;;;1.90;;
20772;SDS011;10546;50.674;4.616;2024-01-30T14:54:18;6.33;;;1.67;;
20772;SDS011;10546;50.674;4.616;2024-01-30T14:56:44;5.57;;;1.77;;
20772;SDS011;10546;50.674;4.616;2024-01-30T14:59:10;11.13;;;3.03;;
20772;SDS011;10546;50.674;4.616;2024-01-30T15:01:36;5.93;;;1.60;;
20772;SDS011;10546;50.674;4.616;2024-01-30T15:04:01;6.07;;;2.00;;
20772;SDS011;10546;50.674;4.616;2024-01-30T15:06:27;8.37;;;2.20;;
20772;SDS011;10546;50.674;4.616;2024-01-30T15:08:53;7.03;;;2.10;;
20772;SDS011;10546;50.674;4.616;2024-01-30T15:11:19;6.53;;;2.73;;
20772;SDS011;10546;50.674;4.616;2024-01-30T15:13:45;6.30;;;2.00;;
20772;SDS011;10546;50.674;4.616;2024-01-30T15:16:10;7.07;;;2.10;;
20772;SDS011;10546;50.674;4.616;2024-01-30T15:18:36;5.60;;;1.63;;
20772;SDS011;10546;50.674;4.616;2024-01-30T15:21:02;3.80;;;1.33;;
20772;SDS011;10546;50.674;4.616;2024-01-30T15:23:28;20.23;;;5.00;;
20772;SDS011;10546;50.674;4.616;2024-01-30T15:25:54;5.40;;;1.90;;
20772;SDS011;10546;50.674;4.616;2024-01-30T15:28:22;4.33;;;1.50;;
20772;SDS011;10546;50.674;4.616;2024-01-30T15:31:00;3.83;;;1.57;;
20772;SDS011;10546;50.674;4.616;2024-01-30T15:33:25;5.07;;;1.70;;
20772;SDS011;10546;50.674;4.616;2024-01-30T15:35:52;20.07;;;4.03;;
20772;SDS011;10546;50.674;4.616;2024-01-30T15:38:19;5.37;;;1.90;;
20772;SDS011;10546;50.674;4.616;2024-01-30T15:40:46;2.87;;;1.10;;
20772;SDS011;10546;50.674;4.616;2024-01-30T15:43:11;5.73;;;1.60;;
20772;SDS011;10546;50.674;4.616;2024-01-30T15:45:37;6.43;;;2.43;;
20772;SDS011;10546;50.674;4.616;2024-01-30T15:48:03;5.27;;;1.33;;
20772;SDS011;10546;50.674;4.616;2024-01-30T15:50:29;7.23;;;1.80;;
20772;SDS011;10546;50.674;4.616;2024-01-30T15:52:58;6.47;;;1.87;;
20772;SDS011;10546;50.674;4.616;2024-01-30T15:55:23;3.83;;;1.20;;
20772;SDS011;10546;50.674;4.616;2024-01-30T15:57:49;5.10;;;1.90;;
20772;SDS011;10546;50.674;4.616;2024-01-30T16:00:15;6.33;;;1.70;;
20772;SDS011;10546;50.674;4.616;2024-01-30T16:02:41;5.00;;;1.77;;
20772;SDS011;10546;50.674;4.616;2024-01-30T16:05:07;7.23;;;2.43;;
20772;SDS011;10546;50.674;4.616;2024-01-30T16:07:34;4.77;;;2.00;;
20772;SDS011;10546;50.674;4.616;2024-01-30T16:10:00;6.07;;;2.10;;
20772;SDS011;10546;50.674;4.616;2024-01-30T16:12:26;10.97;;;3.37;;
20772;SDS011;10546;50.674;4.616;2024-01-30T16:14:52;10.23;;;2.47;;
20772;SDS011;10546;50.674;4.616;2024-01-30T16:17:18;11.33;;;2.50;;
20772;SDS011;10546;50.674;4.616;2024-01-30T16:19:43;4.83;;;2.33;;
20772;SDS011;10546;50.674;4.616;2024-01-30T16:22:09;7.23;;;2.43;;
20772;SDS011;10546;50.674;4.616;2024-01-30T16:24:35;7.23;;;2.80;;
20772;SDS011;10546;50.674;4.616;2024-01-30T16:27:01;6.20;;;2.17;;
20772;SDS011;10546;50.674;4.616;2024-01-30T16:29:27;5.53;;;1.80;;
20772;SDS011;10546;50.674;4.616;2024-01-30T16:31:52;8.17;;;2.27;;
20772;SDS011;10546;50.674;4.616;2024-01-30T16:34:18;3.83;;;1.80;;
20772;SDS011;10546;50.674;4.616;2024-01-30T16:36:44;3.80;;;1.40;;
20772;SDS011;10546;50.674;4.616;2024-01-30T16:39:09;2.07;;;1.30;;
20772;SDS011;10546;50.674;4.616;2024-01-30T16:41:36;5.00;;;1.67;;
20772;SDS011;10546;50.674;4.616;2024-01-30T16:44:02;4.10;;;1.57;;
20772;SDS011;10546;50.674;4.616;2024-01-30T16:46:28;9.53;;;2.73;;
20772;SDS011;10546;50.674;4.616;2024-01-30T16:48:54;7.90;;;2.20;;
20772;SDS011;10546;50.674;4.616;2024-01-30T16:51:19;6.57;;;2.03;;
20772;SDS011;10546;50.674;4.616;2024-01-30T16:53:45;7.70;;;2.10;;
20772;SDS011;10546;50.674;4.616;2024-01-30T16:56:12;4.03;;;1.67;;
20772;SDS011;10546;50.674;4.616;2024-01-30T16:58:39;4.03;;;2.10;;
20772;SDS011;10546;50.674;4.616;2024-01-30T17:01:04;6.57;;;1.80;;
20772;SDS011;10546;50.674;4.616;2024-01-30T17:03:30;7.17;;;2.00;;
20772;SDS011;10546;50.674;4.616;2024-01-30T17:05:55;4.43;;;2.00;;
20772;SDS011;10546;50.674;4.616;2024-01-30T17:08:23;3.40;;;2.00;;
20772;SDS011;10546;50.674;4.616;2024-01-30T17:10:49;1.93;;;1.30;;
20772;SDS011;10546;50.674;4.616;2024-01-30T17:13:15;3.03;;;1.50;;
20772;SDS011;10546;50.674;4.616;2024-01-30T17:15:41;4.70;;;2.17;;
20772;SDS011;10546;50.674;4.616;2024-01-30T17:18:07;7.10;;;1.57;;
20772;SDS011;10546;50.674;4.616;2024-01-30T17:20:33;7.60;;;2.40;;
20772;SDS011;10546;50.674;4.616;2024-01-30T17:22:58;11.33;;;4.47;;
20772;SDS011;10546;50.674;4.616;2024-01-30T17:25:25;44.60;;;18.53;;
20772;SDS011;10546;50.674;4.616;2024-01-30T17:27:51;6.07;;;3.90;;
20772;SDS011;10546;50.674;4.616;2024-01-30T17:30:20;9.30;;;5.60;;
20772;SDS011;10546;50.674;4.616;2024-01-30T17:32:47;5.37;;;3.40;;
20772;SDS011;10546;50.674;4.616;2024-01-30T17:35:12;5.53;;;2.50;;
20772;SDS011;10546;50.674;4.616;2024-01-30T17:37:38;3.93;;;2.93;;
20772;SDS011;10546;50.674;4.616;2024-01-30T17:40:04;7.87;;;2.77;;
20772;SDS011;10546;50.674;4.616;2024-01-30T17:42:31;5.40;;;2.50;;
20772;SDS011;10546;50.674;4.616;2024-01-30T17:44:56;7.27;;;2.73;;
20772;SDS011;10546;50.674;4.616;2024-01-30T17:47:22;7.63;;;2.70;;
20772;SDS011;10546;50.674;4.616;2024-01-30T17:49:48;8.57;;;3.50;;
20772;SDS011;10546;50.674;4.616;2024-01-30T17:52:14;8.53;;;3.93;;
20772;SDS011;10546;50.674;4.616;2024-01-30T17:54:41;6.40;;;2.70;;
20772;SDS011;10546;50.674;4.616;2024-01-30T17:57:06;7.27;;;2.80;;
20772;SDS011;10546;50.674;4.616;2024-01-30T17:59:32;5.77;;;2.80;;
20772;SDS011;10546;50.674;4.616;2024-01-30T18:01:58;7.00;;;2.97;;
20772;SDS011;10546;50.674;4.616;2024-01-30T18:04:23;8.43;;;3.47;;
20772;SDS011;10546;50.674;4.616;2024-01-30T18:06:50;8.30;;;4.30;;
20772;SDS011;10546;50.674;4.616;2024-01-30T18:09:16;8.97;;;3.00;;
20772;SDS011;10546;50.674;4.616;2024-01-30T18:11:42;7.53;;;2.70;;
20772;SDS011;10546;50.674;4.616;2024-01-30T18:14:07;6.77;;;3.23;;
20772;SDS011;10546;50.674;4.616;2024-01-30T18:16:33;8.50;;;3.70;;
20772;SDS011;10546;50.674;4.616;2024-01-30T18:18:59;9.70;;;4.27;;
20772;SDS011;10546;50.674;4.616;2024-01-30T18:21:24;6.23;;;2.80;;
20772;SDS011;10546;50.674;4.616;2024-01-30T18:23:51;4.73;;;2.60;;
20772;SDS011;10546;50.674;4.616;2024-01-30T18:26:16;7.87;;;3.67;;
20772;SDS011;10546;50.674;4.616;2024-01-30T18:28:45;10.03;;;4.50;;
20772;SDS011;10546;50.674;4.616;2024-01-30T18:31:11;8.87;;;3.60;;
20772;SDS011;10546;50.674;4.616;2024-01-30T18:33:37;15.47;;;4.97;;
20772;SDS011;10546;50.674;4.616;2024-01-30T18:36:05;7.87;;;3.30;;
20772;SDS011;10546;50.674;4.616;2024-01-30T18:38:31;10.33;;;4.20;;
20772;SDS011;10546;50.674;4.616;2024-01-30T18:40:57;11.83;;;5.20;;
20772;SDS011;10546;50.674;4.616;2024-01-30T18:43:22;9.80;;;3.60;;
20772;SDS011;10546;50.674;4.616;2024-01-30T18:45:52;8.27;;;4.67;;
20772;SDS011;10546;50.674;4.616;2024-01-30T18:48:18;9.43;;;4.70;;
20772;SDS011;10546;50.674;4.616;2024-01-30T18:50:47;19.30;;;6.83;;
20772;SDS011;10546;50.674;4.616;2024-01-30T18:53:14;14.00;;;4.90;;
20772;SDS011;10546;50.674;4.616;2024-01-30T18:55:39;17.47;;;6.17;;
20772;SDS011;10546;50.674;4.616;2024-01-30T18:58:05;10.33;;;4.97;;
20772;SDS011;10546;50.674;4.616;2024-01-30T19:00:34;12.00;;;7.10;;
20772;SDS011;10546;50.674;4.616;2024-01-30T19:03:05;13.60;;;5.63;;
20772;SDS011;10546;50.674;4.616;2024-01-30T19:05:30;14.20;;;4.87;;
20772;SDS011;10546;50.674;4.616;2024-01-30T19:07:56;10.73;;;5.53;;
20772;SDS011;10546;50.674;4.616;2024-01-30T19:10:21;13.13;;;5.87;;
20772;SDS011;10546;50.674;4.616;2024-01-30T19:12:47;16.60;;;5.80;;
20772;SDS011;10546;50.674;4.616;2024-01-30T19:15:14;14.13;;;6.47;;
20772;SDS011;10546;50.674;4.616;2024-01-30T19:17:39;10.87;;;5.53;;
20772;SDS011;10546;50.674;4.616;2024-01-30T19:20:05;13.00;;;6.50;;
20772;SDS011;10546;50.674;4.616;2024-01-30T19:22:32;17.30;;;6.20;;
20772;SDS011;10546;50.674;4.616;2024-01-30T19:24:58;13.20;;;6.50;;
20772;SDS011;10546;50.674;4.616;2024-01-30T19:27:26;16.83;;;7.63;;
20772;SDS011;10546;50.674;4.616;2024-01-30T19:29:52;16.00;;;8.80;;
20772;SDS011;10546;50.674;4.616;2024-01-30T19:32:18;13.27;;;7.97;;
20772;SDS011;10546;50.674;4.616;2024-01-30T19:34:44;17.10;;;9.07;;
20772;SDS011;10546;50.674;4.616;2024-01-30T19:37:09;14.80;;;7.20;;
20772;SDS011;10546;50.674;4.616;2024-01-30T19:39:35;14.27;;;6.73;;
20772;SDS011;10546;50.674;4.616;2024-01-30T19:42:01;15.37;;;6.83;;
20772;SDS011;10546;50.674;4.616;2024-01-30T19:44:26;18.40;;;6.90;;
20772;SDS011;10546;50.674;4.616;2024-01-30T19:46:52;18.13;;;9.77;;
20772;SDS011;10546;50.674;4.616;2024-01-30T19:49:18;16.03;;;7.50;;
20772;SDS011;10546;50.674;4.616;2024-01-30T19:51:44;20.30;;;7.70;;
20772;SDS011;10546;50.674;4.616;2024-01-30T19:54:10;17.60;;;7.57;;
20772;SDS011;10546;50.674;4.616;2024-01-30T19:56:39;17.97;;;7.33;;
20772;SDS011;10546;50.674;4.616;2024-01-30T19:59:05;19.33;;;7.87;;
20772;SDS011;10546;50.674;4.616;2024-01-30T20:01:31;18.73;;;9.60;;
20772;SDS011;10546;50.674;4.616;2024-01-30T20:03:59;16.83;;;7.90;;
20772;SDS011;10546;50.674;4.616;2024-01-30T20:06:24;18.37;;;8.60;;
20772;SDS011;10546;50.674;4.616;2024-01-30T20:08:50;24.93;;;10.90;;
20772;SDS011;10546;50.674;4.616;2024-01-30T20:11:16;17.23;;;8.27;;
20772;SDS011;10546;50.674;4.616;2024-01-30T20:13:41;16.70;;;8.17;;
20772;SDS011;10546;50.674;4.616;2024-01-30T20:16:07;14.30;;;7.30;;
20772;SDS011;10546;50.674;4.616;2024-01-30T20:18:33;15.23;;;7.77;;
20772;SDS011;10546;50.674;4.616;2024-01-30T20:20:59;18.33;;;8.53;;
20772;SDS011;10546;50.674;4.616;2024-01-30T20:23:24;22.20;;;8.87;;
20772;SDS011;10546;50.674;4.616;2024-01-30T20:25:50;18.73;;;7.67;;
20772;SDS011;10546;50.674;4.616;2024-01-30T20:28:16;21.77;;;10.63;;
20772;SDS011;10546;50.674;4.616;2024-01-30T20:30:42;22.87;;;10.23;;
20772;SDS011;10546;50.674;4.616;2024-01-30T20:33:07;19.27;;;9.27;;
20772;SDS011;10546;50.674;4.616;2024-01-30T20:35:39;19.53;;;8.87;;
20772;SDS011;10546;50.674;4.616;2024-01-30T20:38:04;15.47;;;8.57;;
20772;SDS011;10546;50.674;4.616;2024-01-30T20:40:34;18.90;;;9.93;;
20772;SDS011;10546;50.674;4.616;2024-01-30T20:42:59;20.53;;;9.93;;
20772;SDS011;10546;50.674;4.616;2024-01-30T20:45:25;24.57;;;9.47;;
20772;SDS011;10546;50.674;4.616;2024-01-30T20:47:51;20.33;;;10.07;;
20772;SDS011;10546;50.674;4.616;2024-01-30T20:50:16;19.07;;;9.57;;
20772;SDS011;10546;50.674;4.616;2024-01-30T20:52:42;21.10;;;9.00;;
20772;SDS011;10546;50.674;4.616;2024-01-30T20:55:08;16.77;;;8.00;;
20772;SDS011;10546;50.674;4.616;2024-01-30T20:57:33;21.43;;;10.33;;
20772;SDS011;10546;50.674;4.616;2024-01-30T21:00:00;20.20;;;9.53;;
20772;SDS011;10546;50.674;4.616;2024-01-30T21:02:26;37.40;;;15.83;;
20772;SDS011;10546;50.674;4.616;2024-01-30T21:04:52;25.00;;;10.27;;
20772;SDS011;10546;50.674;4.616;2024-01-30T21:07:18;22.37;;;9.27;;
20772;SDS011;10546;50.674;4.616;2024-01-30T21:09:43;14.23;;;7.80;;
20772;SDS011;10546;50.674;4.616;2024-01-30T21:12:09;18.50;;;7.53;;
20772;SDS011;10546;50.674;4.616;2024-01-30T21:14:36;16.77;;;6.93;;